TIN weather

Tindouf Airport
Tindouf, Tindouf Province, Algeria

Public forecast

Using degrees Celsius for public forecast. Weather courtesy of forecast.io.

METAR (pilot weather report)

Retrieved 2019/05/24 18:00 UTC (28 minutes ago):

DAOF 241800Z 05004KT 9000 NSC 37/M00 Q1008

TAF (pilot weather forecast)

Forecast is more than 12 hours old.

Retrieved 2017/11/09 18:03 UTC (2 years ago):

TAF DAOF 091700Z 0918/1009 32010KT 9999 SCT040 BKN100 PROB30 TEMPO 0918/0921 FEW033CB